Time;durP1;ratioP1;P1;durP2;ratioP2;P2;SDS_P1;SDS_P2;PMS_P1;PMS_P2;Temp;Humidity;BMP_temperature;BMP_pressure;BME280_temperature;BME280_humidity;BME280_pressure;Samples;Min_cycle;Max_cycle;Signal;HPM_P1;HPM_P2
2022/11/23 00:01:29;;;;;;;2.78;1.75;;;;;;;2.83;100.00;98476.53;5045043;28;20049;-50
2022/11/23 00:03:57;;;;;;;3.22;1.98;;;;;;;2.83;100.00;98477.38;5029543;28;20044;-52
2022/11/23 00:06:24;;;;;;;3.05;1.90;;;;;;;2.60;100.00;98446.28;5029806;28;20045;-51
2022/11/23 00:08:51;;;;;;;2.80;1.70;;;;;;;2.82;100.00;98475.72;5029827;28;20041;-50
2022/11/23 00:11:17;;;;;;;3.05;1.88;;;;;;;2.83;100.00;98477.38;5030641;28;20061;-47
2022/11/23 00:13:43;;;;;;;3.25;2.13;;;;;;;2.83;100.00;98486.78;5031377;28;20037;-49
2022/11/23 00:16:14;;;;;;;3.05;1.70;;;;;;;2.83;100.00;98490.19;5013300;28;20063;-46
2022/11/23 00:18:40;;;;;;;2.75;1.83;;;;;;;2.81;100.00;98491.13;5029396;28;20513;-50
2022/11/23 00:21:08;;;;;;;4.93;2.03;;;;;;;2.83;100.00;98484.22;5030272;28;20041;-46
2022/11/23 00:23:34;;;;;;;2.75;1.77;;;;;;;2.81;100.00;98494.56;4997123;28;20147;-50
2022/11/23 00:26:01;;;;;;;3.10;2.03;;;;;;;2.81;100.00;98489.41;5022967;28;20044;-50
2022/11/23 00:28:27;;;;;;;3.53;2.05;;;;;;;2.82;100.00;98485.13;5010003;28;20034;-48
2022/11/23 00:30:53;;;;;;;3.65;2.00;;;;;;;2.68;100.00;98458.91;5026431;28;20486;-46
2022/11/23 00:33:18;;;;;;;2.42;1.80;;;;;;;2.86;100.00;98492.72;5020852;28;20068;-50
2022/11/23 00:35:45;;;;;;;3.72;1.60;;;;;;;2.75;100.00;98465.59;5024680;28;20041;-47
2022/11/23 00:38:11;;;;;;;3.10;1.73;;;;;;;2.87;100.00;98479.00;5029359;28;20090;-49
2022/11/23 00:40:37;;;;;;;4.00;2.13;;;;;;;2.82;100.00;98480.00;5029191;28;20394;-47
2022/11/23 00:43:03;;;;;;;3.15;1.80;;;;;;;2.67;100.00;98442.66;5028442;28;20048;-50
2022/11/23 00:45:28;;;;;;;2.88;1.88;;;;;;;2.87;100.00;98483.31;5045873;28;20065;-50
2022/11/23 00:47:54;;;;;;;3.88;2.13;;;;;;;2.89;100.00;98477.25;5045869;28;20037;-49
2022/11/23 00:50:21;;;;;;;4.53;2.28;;;;;;;2.56;100.00;98426.69;5030304;28;20118;-50
2022/11/23 00:52:49;;;;;;;2.85;2.10;;;;;;;2.84;100.00;98481.63;5030444;28;20037;-47
2022/11/23 00:55:15;;;;;;;4.07;2.28;;;;;;;2.79;100.00;98485.19;5030043;28;20591;-49
2022/11/23 00:57:41;;;;;;;3.30;2.25;;;;;;;2.78;100.00;98484.34;5029342;28;20047;-50
2022/11/23 01:00:08;;;;;;;4.45;2.25;;;;;;;2.81;100.00;98479.16;5011076;28;20137;-47
2022/11/23 01:02:35;;;;;;;3.75;2.13;;;;;;;2.69;100.00;98458.88;5009434;28;20048;-44
2022/11/23 01:05:01;;;;;;;4.82;2.60;;;;;;;2.75;100.00;98469.03;5027295;28;20041;-48
2022/11/23 01:07:31;;;;;;;3.50;2.03;;;;;;;2.88;100.00;98478.09;5029682;28;20038;-47
2022/11/23 01:09:57;;;;;;;2.83;1.77;;;;;;;2.96;100.00;98485.66;5028559;28;20049;-49
2022/11/23 01:12:23;;;;;;;3.90;2.10;;;;;;;2.96;100.00;98483.09;5028390;28;20037;-52
2022/11/23 01:14:51;;;;;;;5.47;2.35;;;;;;;2.74;100.00;98446.78;5029073;28;20424;-49
2022/11/23 01:17:17;;;;;;;3.60;2.22;;;;;;;2.78;100.00;98445.84;5028919;28;20128;-46
2022/11/23 01:19:43;;;;;;;3.67;2.13;;;;;;;2.93;100.00;98478.03;5029341;28;20401;-47
2022/11/23 01:22:09;;;;;;;2.95;1.92;;;;;;;2.94;100.00;98472.84;5026474;28;20049;-49
2022/11/23 01:24:35;;;;;;;3.42;2.17;;;;;;;2.92;100.00;98468.63;5029497;28;20120;-46
2022/11/23 01:27:01;;;;;;;4.03;2.33;;;;;;;2.72;100.00;98440.84;5012350;28;20037;-49
2022/11/23 01:29:27;;;;;;;3.83;1.92;;;;;;;2.91;100.00;98470.34;5042327;28;20044;-50
2022/11/23 01:31:53;;;;;;;3.95;2.35;;;;;;;2.93;100.00;98470.34;5028861;28;20041;-49
2022/11/23 01:34:20;;;;;;;3.88;2.10;;;;;;;2.96;100.00;98478.78;5027397;28;20094;-50
2022/11/23 01:36:46;;;;;;;4.75;2.53;;;;;;;2.97;100.00;98471.94;5027298;28;20041;-50
2022/11/23 01:39:12;;;;;;;4.10;2.22;;;;;;;2.95;100.00;98469.41;5044951;28;20045;-48
2022/11/23 01:41:40;;;;;;;4.15;2.20;;;;;;;2.96;100.00;98472.81;5029460;28;20052;-47
2022/11/23 01:44:27;;;;;;;4.07;2.47;;;;;;;2.95;100.00;98474.53;5028357;28;20215;-45
2022/11/23 01:46:54;;;;;;;5.63;2.38;;;;;;;2.95;100.00;98474.53;5028323;28;20523;-52
2022/11/23 01:49:22;;;;;;;3.97;1.88;;;;;;;3.01;100.00;98476.13;5027911;28;20492;-51
2022/11/23 01:51:50;;;;;;;3.97;2.35;;;;;;;2.98;100.00;98469.31;5011851;28;20581;-52
2022/11/23 01:54:52;;;;;;;4.18;2.20;;;;;;;3.02;100.00;98474.41;5028367;28;20045;-47
2022/11/23 01:57:26;;;;;;;4.10;2.47;;;;;;;3.01;100.00;98476.13;5028377;28;20064;-47
2022/11/23 01:59:53;;;;;;;3.85;2.03;;;;;;;2.98;100.00;98476.19;5011284;28;20099;-46
2022/11/23 02:02:19;;;;;;;4.07;2.55;;;;;;;2.97;100.00;98477.94;5010047;28;20124;-46
2022/11/23 02:04:46;;;;;;;4.00;2.17;;;;;;;3.02;100.00;98476.97;5042699;28;20128;-75
2022/11/23 02:07:14;;;;;;;4.22;2.67;;;;;;;3.03;100.00;98479.50;5027274;28;20076;-63
2022/11/23 02:09:40;;;;;;;5.63;2.47;;;;;;;3.05;100.00;98485.44;5011083;28;20045;-56
2022/11/23 02:12:11;;;;;;;4.95;2.50;;;;;;;3.10;100.00;98493.03;5025529;28;20543;-49
2022/11/23 02:14:37;;;;;;;4.78;2.60;;;;;;;3.10;100.00;98496.44;5011368;28;20091;-51
2022/11/23 02:17:04;;;;;;;3.53;2.33;;;;;;;3.12;100.00;98488.69;5026316;28;20060;-53
2022/11/23 02:19:51;;;;;;;4.50;2.78;;;;;;;3.13;100.00;98492.97;5043800;28;20497;-50
2022/11/23 02:22:30;;;;;;;4.50;2.50;;;;;;;3.06;100.00;98478.56;5029116;28;20042;-49
2022/11/23 02:24:56;;;;;;;4.88;2.55;;;;;;;3.12;100.00;98501.53;5047101;28;20057;-48
2022/11/23 02:27:24;;;;;;;4.45;2.15;;;;;;;3.09;100.00;98487.03;5027707;28;20132;-47
2022/11/23 02:29:51;;;;;;;5.05;2.60;;;;;;;3.08;100.00;98489.66;5029163;28;20033;-48
2022/11/23 02:32:21;;;;;;;4.22;2.38;;;;;;;3.06;100.00;98493.97;5027134;28;20119;-46
2022/11/23 02:34:48;;;;;;;3.72;2.45;;;;;;;3.05;100.00;98497.41;5018084;28;20052;-51
2022/11/23 02:37:14;;;;;;;4.35;2.65;;;;;;;2.91;100.00;98462.66;5023441;28;20185;-52
2022/11/23 02:39:46;;;;;;;3.58;2.30;;;;;;;3.08;100.00;98489.66;5006608;28;20046;-48
2022/11/23 02:42:12;;;;;;;4.47;2.38;;;;;;;3.08;100.00;98489.66;5030863;28;20741;-47
2022/11/23 02:44:57;;;;;;;3.42;2.25;;;;;;;2.88;100.00;98457.56;5032284;28;20119;-51
2022/11/23 02:47:23;;;;;;;5.95;2.60;;;;;;;3.09;100.00;98487.03;5048190;28;20037;-51
2022/11/23 02:49:49;;;;;;;5.70;2.55;;;;;;;3.11;100.00;98479.31;5032796;28;20045;-46
2022/11/23 02:52:17;;;;;;;4.88;2.63;;;;;;;3.15;100.00;98479.19;5032191;28;20044;-47
2022/11/23 02:54:43;;;;;;;4.78;2.65;;;;;;;3.16;100.00;98490.31;5032176;28;20037;-52
2022/11/23 02:57:09;;;;;;;6.28;2.30;;;;;;;3.15;100.00;98483.47;5031030;28;20044;-51
2022/11/23 02:59:35;;;;;;;3.50;2.08;;;;;;;3.13;100.00;98473.28;5031338;28;20049;-50
2022/11/23 03:02:03;;;;;;;4.38;2.40;;;;;;;3.15;100.00;98483.47;5032133;28;20052;-51
2022/11/23 03:04:30;;;;;;;6.90;2.58;;;;;;;3.12;100.00;98478.44;5028939;28;20041;-50
2022/11/23 03:06:56;;;;;;;4.05;1.98;;;;;;;3.15;100.00;98491.19;5010382;28;20046;-54
2022/11/23 03:09:22;;;;;;;5.15;2.30;;;;;;;3.15;100.00;98486.03;5014326;28;20467;-49
2022/11/23 03:11:48;;;;;;;3.80;2.45;;;;;;;3.10;100.00;98483.59;5013467;28;20037;-47
2022/11/23 03:14:15;;;;;;;3.08;2.20;;;;;;;3.10;100.00;98493.03;5030408;28;20127;-48
2022/11/23 03:16:48;;;;;;;3.85;2.38;;;;;;;3.11;100.00;98484.44;5031000;28;20063;-49
2022/11/23 03:19:16;;;;;;;4.78;2.20;;;;;;;3.07;100.00;98483.69;5029274;28;20041;-45
2022/11/23 03:21:41;;;;;;;3.90;2.05;;;;;;;3.05;100.00;98494.84;5030829;28;20424;-51
2022/11/23 03:24:07;;;;;;;7.07;2.90;;;;;;;3.06;100.00;98491.41;5030171;28;20099;-48
2022/11/23 03:26:34;;;;;;;4.80;2.50;;;;;;;3.04;100.00;98490.59;5030666;28;20048;-51
2022/11/23 03:29:08;;;;;;;4.10;2.50;;;;;;;2.87;100.00;98467.91;5010485;28;20037;-50
2022/11/23 03:31:34;;;;;;;3.88;2.50;;;;;;;3.00;100.00;98500.09;5030007;28;20124;-49
2022/11/23 03:34:00;;;;;;;4.78;2.47;;;;;;;3.01;100.00;98501.78;5030030;28;20045;-47
2022/11/23 03:36:29;;;;;;;5.32;2.75;;;;;;;2.99;100.00;98501.81;5013564;28;20080;-47
2022/11/23 03:38:56;;;;;;;5.93;2.50;;;;;;;2.98;100.00;98505.25;5014215;28;20041;-50
2022/11/23 03:41:44;;;;;;;4.83;2.50;;;;;;;3.01;100.00;98501.78;5021595;28;20052;-48
2022/11/23 03:44:10;;;;;;;3.78;2.17;;;;;;;2.99;100.00;98490.69;5046295;28;20136;-53
2022/11/23 03:46:36;;;;;;;5.35;2.55;;;;;;;2.94;100.00;98483.09;5030316;28;20429;-47
2022/11/23 03:49:02;;;;;;;5.75;2.90;;;;;;;2.78;100.00;98450.13;5029893;28;20819;-48
2022/11/23 03:51:28;;;;;;;5.13;2.50;;;;;;;2.97;100.00;98492.47;5029448;28;20163;-48
2022/11/23 03:53:54;;;;;;;5.25;3.10;;;;;;;2.97;100.00;98495.91;5030298;28;20045;-49
2022/11/23 03:56:20;;;;;;;4.70;2.35;;;;;;;2.99;100.00;98498.41;5029362;28;20127;-50
2022/11/23 03:58:46;;;;;;;3.67;2.22;;;;;;;2.99;100.00;98493.28;5037231;28;20580;-47
2022/11/23 04:01:13;;;;;;;3.85;2.50;;;;;;;2.99;100.00;98490.69;5029665;28;20428;-49
2022/11/23 04:03:40;;;;;;;4.82;2.72;;;;;;;2.73;100.00;98449.38;4997043;28;20113;-50
2022/11/23 04:06:09;;;;;;;4.00;2.22;;;;;;;2.98;100.00;98489.03;5029336;28;20135;-51
2022/11/23 04:08:51;;;;;;;3.40;2.05;;;;;;;2.70;100.00;98447.75;5029869;28;20030;-46
2022/11/23 04:11:28;;;;;;;4.68;2.53;;;;;;;2.87;100.00;98479.00;5028409;28;20508;-50
2022/11/23 04:13:54;;;;;;;5.05;3.28;;;;;;;2.99;100.00;98496.69;5029316;28;20531;-47
2022/11/23 04:16:20;;;;;;;6.03;2.80;;;;;;;2.92;100.00;98490.03;5030884;28;20041;-50
2022/11/23 04:18:46;;;;;;;4.80;2.70;;;;;;;2.99;100.00;98499.25;5012880;28;20572;-49
2022/11/23 04:21:12;;;;;;;3.80;2.40;;;;;;;2.98;100.00;98496.75;5028808;28;20164;-46
2022/11/23 04:23:38;;;;;;;3.55;2.47;;;;;;;3.01;100.00;98495.81;5013223;28;20068;-49
2022/11/23 04:26:07;;;;;;;5.78;2.60;;;;;;;3.03;100.00;98505.19;5029567;28;20053;-48
2022/11/23 04:28:36;;;;;;;3.22;2.22;;;;;;;3.04;100.00;98506.00;5027853;28;20048;-45
2022/11/23 04:31:02;;;;;;;6.22;2.55;;;;;;;3.04;100.00;98504.28;5045868;28;20057;-51
2022/11/23 04:33:39;;;;;;;5.88;2.70;;;;;;;3.05;100.00;98511.09;5013866;28;20056;-47
2022/11/23 04:36:06;;;;;;;4.43;2.47;;;;;;;3.06;100.00;98511.94;5028153;28;20052;-53
2022/11/23 04:38:32;;;;;;;5.80;2.95;;;;;;;3.02;100.00;98508.63;5007286;28;20510;-48
2022/11/23 04:40:59;;;;;;;4.90;2.40;;;;;;;3.02;100.00;98507.78;4991784;28;20081;-49
2022/11/23 04:43:25;;;;;;;4.90;2.38;;;;;;;3.06;100.00;98507.66;5027386;28;20072;-50
2022/11/23 04:45:51;;;;;;;5.40;2.90;;;;;;;3.06;100.00;98510.22;5025302;28;20436;-49
2022/11/23 04:48:23;;;;;;;4.97;2.47;;;;;;;3.06;100.00;98507.66;5013421;28;20079;-48
2022/11/23 04:50:49;;;;;;;5.53;2.30;;;;;;;3.08;100.00;98502.50;5045072;28;20045;-48
2022/11/23 04:53:23;;;;;;;6.15;2.90;;;;;;;3.09;100.00;98502.44;5028369;28;20052;-46
2022/11/23 04:55:49;;;;;;;6.13;2.92;;;;;;;3.09;100.00;98509.31;5012271;28;20057;-47
2022/11/23 04:58:15;;;;;;;5.32;2.28;;;;;;;3.13;100.00;98505.81;5028990;28;20045;-47
2022/11/23 05:00:41;;;;;;;5.68;2.50;;;;;;;3.19;100.00;98514.19;5015334;28;20045;-48
2022/11/23 05:03:09;;;;;;;7.40;3.70;;;;;;;3.18;100.00;98507.38;5026613;28;20197;-49
2022/11/23 05:05:38;;;;;;;6.00;3.17;;;;;;;3.20;100.00;98515.03;5028320;28;20569;-47
2022/11/23 05:08:05;;;;;;;4.50;2.50;;;;;;;3.22;100.00;98513.28;5027181;28;20045;-48
2022/11/23 05:10:52;;;;;;;4.82;2.75;;;;;;;3.23;100.00;98515.81;5027829;28;20041;-47
2022/11/23 05:13:18;;;;;;;6.03;2.78;;;;;;;3.23;100.00;98518.38;5012015;28;20513;-48
2022/11/23 05:15:46;;;;;;;6.28;2.65;;;;;;;3.25;100.00;98520.91;5009335;28;20092;-46
2022/11/23 05:18:16;;;;;;;4.47;2.45;;;;;;;3.28;100.00;98521.69;5023193;28;20140;-47
2022/11/23 05:20:43;;;;;;;7.07;2.80;;;;;;;3.31;100.00;98531.88;5028217;28;20604;-49
2022/11/23 05:23:09;;;;;;;10.88;3.42;;;;;;;3.33;100.00;98529.28;5011650;28;20037;-47
2022/11/23 05:25:39;;;;;;;13.43;6.63;;;;;;;3.30;100.00;98522.47;5044399;28;20517;-52
2022/11/23 05:28:14;;;;;;;7.05;3.08;;;;;;;3.19;100.00;98505.66;4995114;28;20142;-46
2022/11/23 05:30:40;;;;;;;5.28;3.05;;;;;;;3.33;100.00;98524.16;5027384;28;20052;-47
2022/11/23 05:33:07;;;;;;;4.68;2.75;;;;;;;3.33;100.00;98519.84;5043106;28;20053;-46
2022/11/23 05:35:34;;;;;;;13.15;4.60;;;;;;;3.37;100.00;98531.75;5027172;28;20477;-46
2022/11/23 05:38:00;;;;;;;10.88;4.30;;;;;;;3.39;100.00;98527.41;5025381;28;20080;-51
2022/11/23 05:40:28;;;;;;;10.32;4.10;;;;;;;3.38;100.00;98524.88;4994135;28;20116;-52
2022/11/23 05:42:58;;;;;;;12.10;5.15;;;;;;;3.36;100.00;98527.47;5027391;28;20041;-46
2022/11/23 05:45:25;;;;;;;9.88;3.40;;;;;;;3.34;100.00;98526.69;5010277;28;20098;-53
2022/11/23 05:47:56;;;;;;;11.65;4.47;;;;;;;3.34;100.00;98536.13;5027773;28;20045;-50
2022/11/23 05:50:40;;;;;;;10.65;4.70;;;;;;;3.34;100.00;98542.09;5026400;28;20049;-47
2022/11/23 05:53:26;;;;;;;8.15;2.92;;;;;;;3.34;100.00;98546.38;5040914;28;20041;-51
2022/11/23 05:56:15;;;;;;;7.00;3.35;;;;;;;3.36;100.00;98536.91;5020253;28;20086;-51
2022/11/23 05:58:55;;;;;;;11.32;4.45;;;;;;;3.37;100.00;98536.03;5044527;28;20119;-47
2022/11/23 06:01:21;;;;;;;9.13;3.85;;;;;;;3.37;100.00;98536.03;5027188;28;20136;-49
2022/11/23 06:03:49;;;;;;;6.38;3.10;;;;;;;3.38;100.00;98540.28;5026503;28;20052;-51
2022/11/23 06:06:16;;;;;;;13.32;5.35;;;;;;;3.37;100.00;98539.44;5007737;28;20050;-50
2022/11/23 06:08:42;;;;;;;8.25;3.67;;;;;;;3.38;100.00;98541.13;5010600;28;20124;-48
2022/11/23 06:11:08;;;;;;;7.75;3.10;;;;;;;3.37;100.00;98536.03;5043206;28;20508;-47
2022/11/23 06:13:34;;;;;;;7.50;3.55;;;;;;;3.36;100.00;98535.19;5006377;28;20351;-48
2022/11/23 06:16:00;;;;;;;6.05;3.25;;;;;;;3.37;100.00;98530.91;5025879;28;20057;-46
2022/11/23 06:18:35;;;;;;;10.18;3.33;;;;;;;3.39;100.00;98535.13;5008583;28;20073;-47
2022/11/23 06:21:01;;;;;;;9.57;4.03;;;;;;;3.41;100.00;98538.47;5024956;28;20037;-49
2022/11/23 06:23:27;;;;;;;7.65;4.63;;;;;;;3.43;100.00;98548.72;5023023;28;20045;-48
2022/11/23 06:25:59;;;;;;;6.43;3.42;;;;;;;3.42;100.00;98537.59;5015138;28;20822;-46
2022/11/23 06:28:27;;;;;;;7.43;3.75;;;;;;;3.46;100.00;98538.38;5035386;28;20072;-49
2022/11/23 06:30:55;;;;;;;5.85;3.65;;;;;;;3.50;100.00;98547.72;5011965;28;20045;-46
2022/11/23 06:33:22;;;;;;;5.10;3.00;;;;;;;3.39;100.00;98511.16;5041007;28;20428;-51
2022/11/23 06:35:56;;;;;;;6.95;2.60;;;;;;;3.56;100.00;98532.13;5024200;28;20509;-51
2022/11/23 06:38:25;;;;;;;5.95;3.50;;;;;;;3.54;100.00;98536.47;5027466;28;20041;-47
2022/11/23 06:41:05;;;;;;;7.90;4.63;;;;;;;3.41;100.00;98509.38;5027508;28;20517;-47
2022/11/23 06:43:31;;;;;;;8.18;4.00;;;;;;;3.57;100.00;98530.41;5025719;28;20049;-46
2022/11/23 06:46:03;;;;;;;6.43;3.33;;;;;;;3.38;100.00;98517.19;5009951;28;20501;-46
2022/11/23 06:48:29;;;;;;;8.60;4.00;;;;;;;3.49;100.00;98547.75;5025850;28;20037;-46
2022/11/23 06:51:00;;;;;;;6.68;3.67;;;;;;;3.50;100.00;98552.00;5000405;28;20045;-50
2022/11/23 06:53:29;;;;;;;8.13;3.50;;;;;;;3.50;100.00;98547.72;5010373;28;20497;-50
2022/11/23 06:55:59;;;;;;;6.65;3.80;;;;;;;3.53;100.00;98542.50;5044327;28;20187;-46
2022/11/23 06:58:27;;;;;;;29.33;9.90;;;;;;;3.53;100.00;98546.78;5038443;28;20042;-46
2022/11/23 07:00:53;;;;;;;10.57;5.47;;;;;;;3.38;100.00;98522.31;5033352;28;20048;-46
2022/11/23 07:03:23;;;;;;;9.38;4.10;;;;;;;3.48;100.00;98541.75;5026275;28;20041;-48
2022/11/23 07:05:55;;;;;;;6.97;4.13;;;;;;;3.50;100.00;98549.44;5022122;28;20052;-44
2022/11/23 07:08:24;;;;;;;;;;;;;;;3.51;100.00;98553.69;5006505;28;20044;-44
2022/11/23 07:10:59;;;;;;;9.35;3.90;;;;;;;3.48;100.00;98552.03;5006057;28;19917;-45
2022/11/23 07:13:25;;;;;;;10.43;3.83;;;;;;;3.19;100.00;98503.09;5025832;28;20045;-47
2022/11/23 07:15:51;;;;;;;9.70;3.40;;;;;;;3.42;100.00;98545.31;5008787;28;20037;-47
2022/11/23 07:18:17;;;;;;;9.82;3.90;;;;;;;3.45;100.00;98551.28;5041198;28;20049;-54
2022/11/23 07:20:50;;;;;;;5.10;3.38;;;;;;;3.46;100.00;98561.50;5007888;28;20048;-48
2022/11/23 07:23:19;;;;;;;6.65;3.50;;;;;;;3.46;100.00;98564.06;5026149;28;20590;-48
2022/11/23 07:26:01;;;;;;;6.15;4.00;;;;;;;3.47;100.00;98562.34;5017992;28;20140;-46
2022/11/23 07:28:27;;;;;;;13.10;4.93;;;;;;;3.51;100.00;98569.13;5003240;28;20612;-47
2022/11/23 07:30:54;;;;;;;8.35;3.35;;;;;;;3.48;100.00;98572.59;5021877;28;20132;-46
2022/11/23 07:33:21;;;;;;;5.32;3.00;;;;;;;3.49;100.00;98569.16;5026816;28;20052;-46
2022/11/23 07:35:48;;;;;;;6.97;4.07;;;;;;;3.54;100.00;98569.88;5013162;28;20053;-51
2022/11/23 07:38:14;;;;;;;10.00;4.15;;;;;;;3.37;100.00;98549.72;5029799;28;20104;-50
2022/11/23 07:40:41;;;;;;;6.05;3.35;;;;;;;3.55;100.00;98581.00;5046070;28;20477;-46
2022/11/23 07:43:17;;;;;;;8.18;3.33;;;;;;;3.57;100.00;98577.50;5023208;28;20144;-49
2022/11/23 07:45:47;;;;;;;7.18;2.95;;;;;;;3.56;100.00;98583.50;5023153;28;20057;-49
2022/11/23 07:48:15;;;;;;;6.47;3.33;;;;;;;3.56;100.00;98575.00;5009156;28;20036;-47
2022/11/23 07:50:41;;;;;;;8.95;3.63;;;;;;;3.57;100.00;98581.78;5030899;28;20041;-50
2022/11/23 07:53:07;;;;;;;7.70;4.40;;;;;;;3.56;100.00;98577.56;5027915;28;20144;-47
2022/11/23 07:55:33;;;;;;;9.48;4.25;;;;;;;3.61;100.00;98580.84;5035641;28;20571;-48
2022/11/23 07:57:59;;;;;;;8.85;4.35;;;;;;;3.60;100.00;98576.59;5023811;28;20041;-49
2022/11/23 08:00:27;;;;;;;6.65;3.60;;;;;;;3.57;100.00;98564.66;5009263;28;20594;-45
2022/11/23 08:02:53;;;;;;;7.88;4.88;;;;;;;3.42;100.00;98549.59;5026388;28;20045;-46
2022/11/23 08:05:19;;;;;;;5.65;3.63;;;;;;;3.46;100.00;98553.78;5019393;28;20045;-49
2022/11/23 08:07:45;;;;;;;8.45;3.33;;;;;;;3.57;100.00;98569.78;5023061;28;20049;-45
2022/11/23 08:10:11;;;;;;;6.68;3.72;;;;;;;3.60;100.00;98559.47;5023032;28;20029;-45
2022/11/23 08:12:38;;;;;;;8.40;4.63;;;;;;;3.63;100.00;98554.22;5019003;28;20038;-50
2022/11/23 08:15:05;;;;;;;9.95;4.13;;;;;;;3.63;100.00;98561.94;5020245;28;20058;-48
2022/11/23 08:17:30;;;;;;;8.55;4.82;;;;;;;3.64;100.00;98563.63;5021242;28;20042;-48
2022/11/23 08:19:56;;;;;;;8.65;4.05;;;;;;;3.60;100.00;98562.03;5003498;28;20048;-52
2022/11/23 08:22:22;;;;;;;10.32;5.25;;;;;;;3.57;100.00;98562.09;5022206;28;20049;-47
2022/11/23 08:24:48;;;;;;;8.65;4.20;;;;;;;3.62;100.00;98561.97;5021865;28;20038;-48
2022/11/23 08:27:14;;;;;;;9.57;3.72;;;;;;;3.64;100.00;98566.19;5019320;28;20461;-49
2022/11/23 08:29:40;;;;;;;6.90;4.10;;;;;;;3.63;100.00;98559.38;5021322;28;20084;-48
2022/11/23 08:32:06;;;;;;;8.63;4.88;;;;;;;3.65;100.00;98569.63;5021232;28;20096;-47
2022/11/23 08:34:31;;;;;;;6.68;4.10;;;;;;;3.66;100.00;98567.03;5023469;28;20038;-48
2022/11/23 08:36:57;;;;;;;8.27;4.05;;;;;;;3.55;100.00;98535.59;5022451;28;20064;-48
2022/11/23 08:39:23;;;;;;;6.93;4.10;;;;;;;3.67;100.00;98576.41;5018632;28;20088;-47
2022/11/23 08:41:49;;;;;;;8.35;3.90;;;;;;;3.70;100.00;98573.75;5042710;28;20561;-48
2022/11/23 08:44:15;;;;;;;5.85;3.90;;;;;;;3.75;100.00;98579.63;5024697;28;20107;-51
2022/11/23 08:46:41;;;;;;;9.90;5.82;;;;;;;3.74;100.00;98575.38;5019807;28;20125;-46
2022/11/23 08:49:07;;;;;;;11.55;5.40;;;;;;;3.76;100.00;98571.03;5011709;28;20130;-48
2022/11/23 08:51:33;;;;;;;6.10;3.67;;;;;;;3.56;100.00;98534.69;5027166;28;20041;-51
2022/11/23 08:53:58;;;;;;;7.35;3.85;;;;;;;3.86;100.00;98569.09;5023630;28;20050;-50
2022/11/23 08:56:25;;;;;;;6.70;4.15;;;;;;;3.93;100.00;98582.59;5009370;28;20042;-51
2022/11/23 08:58:50;;;;;;;6.93;5.10;;;;;;;3.79;100.00;98562.41;5018694;28;20045;-50
2022/11/23 09:01:17;;;;;;;5.50;4.05;;;;;;;3.92;100.00;98581.78;5020467;28;20394;-51
2022/11/23 09:03:43;;;;;;;8.93;3.17;;;;;;;3.82;100.00;98564.91;5020973;28;20052;-53
2022/11/23 09:06:10;;;;;;;4.72;3.08;;;;;;;3.77;100.00;98559.84;5039123;28;20111;-53
2022/11/23 09:08:36;;;;;;;7.00;3.65;;;;;;;3.94;100.00;98580.00;5028887;28;20040;-48
2022/11/23 09:11:04;;;;;;;4.43;3.10;;;;;;;3.99;100.00;98582.47;5027595;28;20048;-51
2022/11/23 09:13:30;;;;;;;7.47;4.05;;;;;;;3.74;100.00;98541.09;5027169;28;20041;-49
2022/11/23 09:16:00;;;;;;;8.00;2.78;;;;;;;3.96;100.00;98567.13;5026855;28;20037;-48
2022/11/23 09:18:29;;;;;;;5.07;3.45;;;;;;;4.04;100.00;98575.47;5009125;28;20072;-55
2022/11/23 09:20:55;;;;;;;6.13;4.75;;;;;;;4.04;100.00;98576.31;5027914;28;20130;-51
2022/11/23 09:23:21;;;;;;;6.60;4.68;;;;;;;4.04;100.00;98578.03;5029696;28;20037;-58
2022/11/23 09:25:49;;;;;;;6.55;4.80;;;;;;;4.05;100.00;98577.16;5029202;28;20508;-49
2022/11/23 09:28:18;;;;;;;6.25;3.78;;;;;;;4.07;100.00;98585.69;5028298;28;20631;-56
2022/11/23 09:30:46;;;;;;;8.60;4.57;;;;;;;4.06;100.00;98574.56;5028020;28;20531;-54
2022/11/23 09:33:12;;;;;;;6.57;3.95;;;;;;;4.08;100.00;98577.09;5016645;28;20107;-53
2022/11/23 09:35:38;;;;;;;8.57;5.20;;;;;;;4.09;100.00;98577.03;5025454;28;20044;-53
2022/11/23 09:38:04;;;;;;;6.10;3.42;;;;;;;3.86;100.00;98534.81;5024631;28;20060;-54
2022/11/23 09:40:40;;;;;;;4.03;2.75;;;;;;;4.11;100.00;98575.28;5010275;28;20090;-51
2022/11/23 09:43:29;;;;;;;6.55;3.13;;;;;;;4.14;100.00;98580.34;5027811;28;20048;-54
2022/11/23 09:45:56;;;;;;;5.05;3.33;;;;;;;4.13;100.00;98581.25;5010097;28;20049;-50
2022/11/23 09:48:41;;;;;;;5.05;3.10;;;;;;;4.13;100.00;98582.97;5024609;28;20562;-53
2022/11/23 09:51:14;;;;;;;12.75;6.10;;;;;;;4.14;100.00;98584.63;5009332;28;20038;-53
2022/11/23 09:53:52;;;;;;;16.75;8.57;;;;;;;4.17;100.00;98582.00;5024048;28;20425;-52
2022/11/23 09:56:22;;;;;;;16.25;7.38;;;;;;;4.17;100.00;98577.69;4994096;28;20041;-53
2022/11/23 09:58:52;;;;;;;8.30;4.40;;;;;;;4.04;100.00;98557.47;5024186;28;20037;-53
2022/11/23 10:01:18;;;;;;;15.85;8.02;;;;;;;4.17;100.00;98582.00;5026610;28;20475;-58
2022/11/23 10:03:44;;;;;;;7.70;3.40;;;;;;;4.16;100.00;98585.44;5026501;28;20045;-54
2022/11/23 10:06:24;;;;;;;9.00;5.05;;;;;;;4.15;100.00;98578.59;5027295;28;20499;-49
2022/11/23 10:09:05;;;;;;;;;;;;;;;4.15;100.00;98582.03;5009747;28;20047;-51
2022/11/23 10:11:35;;;;;;;4.63;2.70;;;;;;;4.10;100.00;98581.31;5024567;28;19924;-51
2022/11/23 10:14:11;;;;;;;4.43;2.92;;;;;;;4.08;100.00;98580.47;5027030;28;20047;-48
2022/11/23 10:16:55;;;;;;;3.75;2.42;;;;;;;4.11;100.00;98577.84;5028116;28;20045;-50
2022/11/23 10:19:36;;;;;;;5.25;2.72;;;;;;;4.05;100.00;98583.16;5027602;28;20041;-51
2022/11/23 10:22:22;;;;;;;4.28;3.03;;;;;;;4.04;100.00;98580.59;5011052;28;20041;-51
2022/11/23 10:24:52;;;;;;;5.25;2.90;;;;;;;4.06;100.00;98589.13;5026969;28;20103;-48
2022/11/23 10:27:20;;;;;;;5.10;3.15;;;;;;;4.07;100.00;98590.84;5028645;28;20054;-50
2022/11/23 10:29:46;;;;;;;6.60;3.33;;;;;;;4.09;100.00;98592.47;5028825;28;20030;-48
2022/11/23 10:32:32;;;;;;;3.55;3.15;;;;;;;4.09;100.00;98591.63;4991289;28;20367;-50
2022/11/23 10:35:11;;;;;;;8.05;4.40;;;;;;;4.08;100.00;98595.09;5008412;28;20437;-51
2022/11/23 10:37:38;;;;;;;10.25;4.45;;;;;;;4.08;100.00;98597.66;5022841;28;20049;-48
2022/11/23 10:40:16;;;;;;;9.30;4.13;;;;;;;3.97;100.00;98569.66;5021024;28;20041;-54
2022/11/23 10:42:45;;;;;;;5.93;4.05;;;;;;;4.05;100.00;98587.44;5027607;28;20033;-48
2022/11/23 10:45:20;;;;;;;8.30;4.30;;;;;;;4.05;100.00;98592.59;5027331;28;20465;-51
2022/11/23 10:48:00;;;;;;;4.80;3.50;;;;;;;4.03;100.00;98594.38;5011084;28;20040;-49
2022/11/23 10:50:32;;;;;;;5.20;3.60;;;;;;;3.85;100.00;98569.97;5027284;28;20037;-48
2022/11/23 10:53:19;;;;;;;7.95;3.63;;;;;;;4.02;100.00;98601.25;5028323;28;20037;-49
2022/11/23 10:55:56;;;;;;;6.32;4.22;;;;;;;4.00;100.00;98600.44;5010937;28;20081;-54
2022/11/23 10:58:34;;;;;;;5.90;3.67;;;;;;;3.98;100.00;98583.38;5027294;28;20072;-49
2022/11/23 11:01:02;;;;;;;4.78;3.67;;;;;;;4.01;100.00;98593.56;5044007;28;20125;-51
2022/11/23 11:03:32;;;;;;;4.97;3.20;;;;;;;4.00;100.00;98586.72;5031066;28;20041;-50
2022/11/23 11:05:58;;;;;;;4.32;2.75;;;;;;;3.98;100.00;98594.47;5030535;28;20044;-50
2022/11/23 11:08:30;;;;;;;3.60;2.60;;;;;;;3.95;100.00;98594.56;5014330;28;20029;-48
2022/11/23 11:11:07;;;;;;;4.50;2.55;;;;;;;3.69;100.00;98556.66;5032283;28;20064;-52
2022/11/23 11:13:45;;;;;;;4.20;3.10;;;;;;;3.97;100.00;98605.66;5032494;28;20114;-50
2022/11/23 11:16:46;;;;;;;6.07;3.83;;;;;;;3.97;100.00;98608.22;5014662;28;20056;-50
2022/11/23 11:19:33;;;;;;;8.25;4.60;;;;;;;3.99;100.00;98603.03;5019908;28;20072;-50
2022/11/23 11:22:24;;;;;;;9.68;5.90;;;;;;;4.00;100.00;98615.00;5046296;28;20045;-46
2022/11/23 11:24:50;;;;;;;10.63;5.78;;;;;;;3.97;100.00;98615.94;5026095;28;20075;-47
2022/11/23 11:27:21;;;;;;;6.13;4.35;;;;;;;3.95;100.00;98620.28;5031502;28;20460;-50
2022/11/23 11:29:50;;;;;;;7.22;4.57;;;;;;;3.76;100.00;98596.75;5031856;28;20041;-51
2022/11/23 11:32:19;;;;;;;6.40;4.30;;;;;;;3.93;100.00;98626.31;5030453;28;20476;-50
2022/11/23 11:34:48;;;;;;;9.27;5.50;;;;;;;3.91;100.00;98617.81;5030298;28;20132;-49
2022/11/23 11:37:23;;;;;;;6.57;4.00;;;;;;;3.89;100.00;98632.41;5013794;28;20449;-51
2022/11/23 11:40:03;;;;;;;8.98;5.13;;;;;;;3.84;100.00;98630.81;5031536;28;20535;-53
2022/11/23 11:42:35;;;;;;;6.53;4.38;;;;;;;3.81;100.00;98630.91;5020305;28;20083;-49
2022/11/23 11:45:04;;;;;;;7.97;4.82;;;;;;;3.78;100.00;98638.66;5029386;28;20157;-52